Walla Walla, Washington
Current Conditions -  °F | °C
As of 6:53 PM on Saturday 25 Oct 2014 (Local Time) from KALW Reporting Station
Broken Clouds Broken Clouds  
Wind Chill: 63°   Ceiling: 9500
Heat Index: 63°   Visibility: 10mi
Dew Point: 46°   Wind: 16mph
Humidity: 54%   Direction: 190°S
Pressure: 29.55"   Gusts: NA
Location:  46.07°N, 118.34°W
Report Text: KALW 260153Z AUTO 19014KT 10SM FEW065 BKN095 BKN110 17/08 A2955 RMK AO2 PK WND 24034/0133 RAE46 SLP005 P0001 T01720078 $
Loading
Personal Weather Stations






























Interactive Weather Map
Tropical Storm Tracking
New forecast layout! Learn more

10-Day Weather Forecast

Advertisements
Track Severe Weather on mobile